createdAt,value
2018-12-21T00:02:00.609Z,7.13
2018-12-21T00:04:28.950Z,7.15
2018-12-21T00:06:57.218Z,7.13
2018-12-21T00:09:29.365Z,7.10
2018-12-21T00:11:58.971Z,7.13
2018-12-21T00:14:27.367Z,7.15
2018-12-21T00:16:56.753Z,7.19
2018-12-21T00:19:25.950Z,7.19
2018-12-21T00:21:54.325Z,7.19
2018-12-21T00:24:23.088Z,7.19
2018-12-21T00:26:51.366Z,7.15
2018-12-21T00:29:19.676Z,7.11
2018-12-21T00:31:53.690Z,7.09
2018-12-21T00:34:28.140Z,7.12
2018-12-21T00:37:02.138Z,7.13
2018-12-21T00:39:36.367Z,7.13
2018-12-21T00:45:00.827Z,7.24
2018-12-21T00:47:29.240Z,7.16
2018-12-21T00:49:57.591Z,7.23
2018-12-21T00:52:25.850Z,7.16
2018-12-21T00:54:54.423Z,7.15
2018-12-21T00:57:22.652Z,7.13
2018-12-21T00:59:51.029Z,7.15
2018-12-21T01:02:19.908Z,7.15
2018-12-21T01:04:48.549Z,7.19
2018-12-21T01:07:17.613Z,7.15
2018-12-21T01:09:46.741Z,7.22
2018-12-21T01:12:15.861Z,7.16
2018-12-21T01:14:44.492Z,7.21
2018-12-21T01:17:13.106Z,7.28
2018-12-21T01:19:41.616Z,7.32
2018-12-21T01:22:09.890Z,7.38
2018-12-21T01:24:38.758Z,7.32
2018-12-21T01:27:07.034Z,7.31
2018-12-21T01:29:35.314Z,7.35
2018-12-21T01:32:03.876Z,7.36
2018-12-21T01:34:32.678Z,7.38
2018-12-21T01:37:01.042Z,7.41
2018-12-21T01:39:29.425Z,7.43
2018-12-21T01:41:57.746Z,7.44
2018-12-21T01:44:26.398Z,7.46
2018-12-21T01:46:54.961Z,7.40
2018-12-21T01:49:24.330Z,7.44
2018-12-21T01:51:52.589Z,7.41
2018-12-21T01:54:22.660Z,7.46
2018-12-21T01:56:51.311Z,7.51
2018-12-21T01:59:19.739Z,7.48
2018-12-21T02:01:48.021Z,7.41
2018-12-21T02:04:16.603Z,7.53
2018-12-21T02:06:45.170Z,7.54
2018-12-21T02:11:52.779Z,7.60
2018-12-21T02:14:21.929Z,7.58
2018-12-21T02:16:50.281Z,7.55
2018-12-21T02:19:19.477Z,7.62
2018-12-21T02:21:55.828Z,7.56
2018-12-21T02:24:19.240Z,7.56
2018-12-21T02:26:47.893Z,7.54
2018-12-21T02:29:16.243Z,7.60
2018-12-21T02:31:44.952Z,7.56
2018-12-21T02:34:13.460Z,7.61
2018-12-21T02:36:41.805Z,7.57
2018-12-21T02:39:10.073Z,7.58
2018-12-21T02:41:38.977Z,7.63
2018-12-21T02:44:07.573Z,7.49
2018-12-21T02:46:36.172Z,7.58
2018-12-21T02:49:05.200Z,7.65
2018-12-21T02:51:33.851Z,7.64
2018-12-21T02:54:02.610Z,7.54
2018-12-21T02:56:31.209Z,7.54
2018-12-21T02:58:59.505Z,7.67
2018-12-21T03:04:06.453Z,7.62
2018-12-21T03:06:35.050Z,7.57
2018-12-21T03:09:07.212Z,7.59
2018-12-21T03:11:36.153Z,7.59
2018-12-21T03:14:04.447Z,7.57
2018-12-21T03:16:33.069Z,7.58
2018-12-21T03:19:01.874Z,7.53
2018-12-21T03:21:30.266Z,7.63
2018-12-21T03:23:58.509Z,7.49
2018-12-21T03:26:26.777Z,7.60
2018-12-21T03:28:55.046Z,7.72
2018-12-21T03:31:23.835Z,7.69
2018-12-21T03:33:52.161Z,7.77
2018-12-21T03:36:20.752Z,7.79
2018-12-21T03:38:49.398Z,7.69
2018-12-21T03:41:18.297Z,7.66
2018-12-21T03:43:46.773Z,7.71
2018-12-21T03:46:15.639Z,7.67
2018-12-21T03:48:43.904Z,7.69
2018-12-21T03:51:12.208Z,7.71
2018-12-21T03:53:40.785Z,7.72
2018-12-21T03:56:09.055Z,7.74
2018-12-21T03:58:37.405Z,7.75
2018-12-21T04:01:05.964Z,7.76
2018-12-21T04:03:34.835Z,7.77
2018-12-21T04:06:03.157Z,7.74
2018-12-21T04:08:31.382Z,7.73
2018-12-21T04:10:59.918Z,7.77
2018-12-21T04:13:28.445Z,7.63
2018-12-21T04:15:56.748Z,7.61
2018-12-21T04:18:25.518Z,7.71
2018-12-21T04:20:53.711Z,7.69
2018-12-21T04:23:22.586Z,7.75
2018-12-21T04:25:52.391Z,7.74
2018-12-21T04:28:20.740Z,7.76
2018-12-21T04:30:49.532Z,7.80
2018-12-21T04:33:18.401Z,7.85
2018-12-21T04:35:46.927Z,7.81
2018-12-21T04:38:15.251Z,7.76
2018-12-21T04:40:44.228Z,7.81
2018-12-21T04:43:12.665Z,7.86
2018-12-21T04:45:42.033Z,7.89
2018-12-21T04:48:10.464Z,7.84
2018-12-21T04:50:38.845Z,7.88
2018-12-21T04:53:07.414Z,7.86
2018-12-21T04:55:35.973Z,7.83
2018-12-21T04:58:04.414Z,7.93
2018-12-21T05:00:32.765Z,7.97
2018-12-21T05:03:01.548Z,7.93
2018-12-21T05:05:29.829Z,7.87
2018-12-21T05:07:58.708Z,7.86
2018-12-21T05:10:29.013Z,7.99
2018-12-21T05:13:00.680Z,8.03
2018-12-21T05:15:31.004Z,7.97
2018-12-21T05:17:59.698Z,7.98
2018-12-21T05:20:28.017Z,8.12
2018-12-21T05:22:56.375Z,8.07
2018-12-21T05:25:25.261Z,8.08
2018-12-21T05:27:53.653Z,8.16
2018-12-21T05:30:21.975Z,8.11
2018-12-21T05:32:50.537Z,8.16
2018-12-21T05:35:19.075Z,8.16
2018-12-21T05:37:47.397Z,8.16
2018-12-21T05:40:15.699Z,8.22
2018-12-21T05:42:43.970Z,8.31
2018-12-21T05:45:12.439Z,8.30
2018-12-21T05:47:40.769Z,8.28
2018-12-21T05:50:09.403Z,8.39
2018-12-21T05:52:38.022Z,8.42
2018-12-21T05:55:06.839Z,8.38
2018-12-21T05:57:35.701Z,8.35
2018-12-21T06:00:05.415Z,8.40
2018-12-21T06:02:33.744Z,8.45
2018-12-21T06:05:02.180Z,8.53
2018-12-21T06:07:31.311Z,8.57
2018-12-21T06:10:00.056Z,8.55
2018-12-21T06:12:28.416Z,8.68
2018-12-21T06:14:56.642Z,8.65
2018-12-21T06:17:25.762Z,8.55
2018-12-21T06:19:54.438Z,8.64
2018-12-21T06:22:22.712Z,8.70
2018-12-21T06:24:51.071Z,8.63
2018-12-21T06:27:19.653Z,8.64
2018-12-21T06:29:48.208Z,8.64
2018-12-21T06:32:16.475Z,8.67
2018-12-21T06:34:45.057Z,8.69
2018-12-21T06:37:13.251Z,8.59
2018-12-21T06:39:41.885Z,8.61
2018-12-21T06:42:10.658Z,8.53
2018-12-21T06:44:38.902Z,8.52
2018-12-21T06:47:07.250Z,8.46
2018-12-21T06:49:35.515Z,8.44
2018-12-21T06:52:03.873Z,8.37
2018-12-21T06:54:32.191Z,8.28
2018-12-21T06:57:00.916Z,8.21
2018-12-21T06:59:29.349Z,8.16
2018-12-21T07:01:57.632Z,8.22
2018-12-21T07:04:25.926Z,8.20
2018-12-21T07:06:54.257Z,8.20
2018-12-21T07:09:22.769Z,8.12
2018-12-21T07:11:51.044Z,8.04
2018-12-21T07:14:19.299Z,8.05
2018-12-21T07:16:47.958Z,8.07
2018-12-21T07:19:16.820Z,8.06
2018-12-21T07:21:45.404Z,8.07
2018-12-21T07:24:14.765Z,7.99
2018-12-21T07:26:43.085Z,7.88
2018-12-21T07:29:11.327Z,7.77
2018-12-21T07:31:39.814Z,7.72
2018-12-21T07:34:08.094Z,7.71
2018-12-21T07:36:36.626Z,7.70
2018-12-21T07:39:07.721Z,7.66
2018-12-21T07:41:36.405Z,7.62
2018-12-21T07:44:05.074Z,7.62
2018-12-21T07:46:33.349Z,7.63
2018-12-21T07:49:01.536Z,7.62
2018-12-21T07:51:29.890Z,7.60
2018-12-21T07:53:58.205Z,7.60
2018-12-21T07:56:26.571Z,7.61
2018-12-21T07:58:57.435Z,7.63
2018-12-21T08:01:25.523Z,7.60
2018-12-21T08:03:53.713Z,7.65
2018-12-21T08:06:22.037Z,7.66
2018-12-21T08:08:50.831Z,7.69
2018-12-21T08:11:19.311Z,7.69
2018-12-21T08:13:49.462Z,7.70
2018-12-21T08:16:18.020Z,7.74
2018-12-21T08:18:46.524Z,7.75
2018-12-21T08:21:15.320Z,7.70
2018-12-21T08:23:47.143Z,7.64
2018-12-21T08:26:18.054Z,7.67
2018-12-21T08:28:47.533Z,7.65
2018-12-21T08:31:16.664Z,7.67
2018-12-21T08:33:48.741Z,7.69
2018-12-21T08:36:20.780Z,7.72
2018-12-21T08:38:53.178Z,7.69
2018-12-21T08:41:26.849Z,7.75
2018-12-21T08:43:57.822Z,7.75
2018-12-21T08:46:30.025Z,7.68
2018-12-21T08:49:01.521Z,7.69
2018-12-21T08:54:11.374Z,7.80
2018-12-21T08:56:42.332Z,7.83
2018-12-21T08:59:13.894Z,7.90
2018-12-21T09:01:46.119Z,7.82
2018-12-21T09:04:18.655Z,7.86
2018-12-21T09:06:56.302Z,7.82
2018-12-21T09:09:28.045Z,7.91
2018-12-21T09:11:59.989Z,7.96
2018-12-21T09:14:33.048Z,7.97
2018-12-21T09:17:05.414Z,7.97
2018-12-21T09:19:37.798Z,8.02
2018-12-21T09:22:09.687Z,7.99
2018-12-21T09:24:41.636Z,8.04
2018-12-21T09:27:13.862Z,8.12
2018-12-21T09:29:46.415Z,8.28
2018-12-21T09:32:16.550Z,8.30
2018-12-21T09:34:45.434Z,8.32
2018-12-21T09:37:13.766Z,8.28
2018-12-21T09:39:42.944Z,8.35
2018-12-21T09:42:12.516Z,8.39
2018-12-21T09:44:41.267Z,8.54
2018-12-21T09:47:10.175Z,8.43
2018-12-21T09:49:38.443Z,8.45
2018-12-21T09:52:07.334Z,8.65
2018-12-21T09:54:35.686Z,8.65
2018-12-21T09:57:04.257Z,8.84
2018-12-21T09:59:32.649Z,8.87
2018-12-21T10:02:01.237Z,9.00
2018-12-21T10:04:29.591Z,8.93
2018-12-21T10:06:58.622Z,8.91
2018-12-21T10:09:26.967Z,9.04
2018-12-21T10:11:55.474Z,9.08
2018-12-21T10:14:24.955Z,9.09
2018-12-21T10:16:55.425Z,9.09
2018-12-21T10:19:23.713Z,9.10
2018-12-21T10:21:51.965Z,8.99
2018-12-21T10:24:20.302Z,9.00
2018-12-21T10:26:48.608Z,9.06
2018-12-21T10:29:17.847Z,9.09
2018-12-21T10:31:46.171Z,9.06
2018-12-21T10:34:15.118Z,9.06
2018-12-21T10:36:44.961Z,9.09
2018-12-21T10:39:13.594Z,9.23
2018-12-21T10:41:41.887Z,9.41
2018-12-21T10:44:10.828Z,9.34
2018-12-21T10:46:39.383Z,9.34
2018-12-21T10:49:07.845Z,9.39
2018-12-21T10:51:38.515Z,9.42
2018-12-21T10:54:07.200Z,9.44
2018-12-21T10:56:35.807Z,9.36
2018-12-21T10:59:04.138Z,9.38
2018-12-21T11:01:32.456Z,9.39
2018-12-21T11:04:00.921Z,9.26
2018-12-21T11:06:29.190Z,9.26
2018-12-21T11:08:57.465Z,9.30
2018-12-21T11:11:26.061Z,9.52
2018-12-21T11:13:54.315Z,9.57
2018-12-21T11:16:23.232Z,9.71
2018-12-21T11:18:52.081Z,9.69
2018-12-21T11:21:20.323Z,9.74
2018-12-21T11:23:48.936Z,9.72
2018-12-21T11:26:17.180Z,9.71
2018-12-21T11:31:25.985Z,9.87
2018-12-21T11:33:54.535Z,9.89
2018-12-21T11:36:22.890Z,10.01
2018-12-21T11:38:51.188Z,10.05
2018-12-21T11:41:19.437Z,10.01
2018-12-21T11:43:47.909Z,9.96
2018-12-21T11:46:16.105Z,9.98
2018-12-21T11:48:44.527Z,9.99
2018-12-21T11:51:12.890Z,10.13
2018-12-21T11:53:41.506Z,10.22
2018-12-21T11:56:09.837Z,10.22
2018-12-21T11:58:38.468Z,10.17
2018-12-21T12:01:06.992Z,10.16
2018-12-21T12:03:35.337Z,10.20
2018-12-21T12:06:04.177Z,10.24
2018-12-21T12:08:32.458Z,10.24
2018-12-21T12:11:02.785Z,10.28
2018-12-21T12:13:31.470Z,10.31
2018-12-21T12:15:59.758Z,10.32
2018-12-21T12:18:28.395Z,10.31
2018-12-21T12:20:57.304Z,10.46
2018-12-21T12:23:25.744Z,10.55
2018-12-21T12:25:54.554Z,10.60
2018-12-21T12:28:23.526Z,10.53
2018-12-21T12:30:52.050Z,10.52
2018-12-21T12:33:21.031Z,10.60
2018-12-21T12:35:49.567Z,10.65
2018-12-21T12:38:18.185Z,10.73
2018-12-21T12:40:46.779Z,10.80
2018-12-21T12:43:15.786Z,10.93
2018-12-21T12:45:44.165Z,11.00
2018-12-21T12:48:12.812Z,10.90
2018-12-21T12:50:41.477Z,10.96
2018-12-21T12:53:09.767Z,10.94
2018-12-21T12:55:39.483Z,11.08
2018-12-21T12:58:07.773Z,11.07
2018-12-21T13:00:36.397Z,10.98
2018-12-21T13:03:04.690Z,10.97
2018-12-21T13:05:33.034Z,11.00
2018-12-21T13:08:01.625Z,11.11
2018-12-21T13:10:30.020Z,11.13
2018-12-21T13:12:59.549Z,11.10
2018-12-21T13:15:28.157Z,11.14
2018-12-21T13:17:57.176Z,11.20
2018-12-21T13:20:25.890Z,11.17
2018-12-21T13:22:55.983Z,11.25
2018-12-21T13:25:24.994Z,11.19
2018-12-21T13:27:53.882Z,11.17
2018-12-21T13:30:22.692Z,11.18
2018-12-21T13:32:51.557Z,11.22
2018-12-21T13:35:19.756Z,11.18
2018-12-21T13:37:48.064Z,11.23
2018-12-21T13:40:16.852Z,11.25
2018-12-21T13:42:46.733Z,11.18
2018-12-21T13:45:15.473Z,11.10
2018-12-21T13:47:43.951Z,10.98
2018-12-21T13:50:14.973Z,11.01
2018-12-21T13:52:43.128Z,11.07
2018-12-21T13:55:20.049Z,11.02
2018-12-21T13:57:42.574Z,10.99
2018-12-21T14:00:11.550Z,11.06
2018-12-21T14:02:40.722Z,11.02
2018-12-21T14:05:09.136Z,11.09
2018-12-21T14:07:38.079Z,11.17
2018-12-21T14:10:10.766Z,11.15
2018-12-21T14:12:41.257Z,11.20
2018-12-21T14:15:10.555Z,11.12
2018-12-21T14:17:39.013Z,11.10
2018-12-21T14:22:50.912Z,11.07
2018-12-21T14:25:19.475Z,11.02
2018-12-21T14:27:48.172Z,10.99
2018-12-21T14:30:16.458Z,10.98
2018-12-21T14:32:44.778Z,10.98
2018-12-21T14:35:13.335Z,10.96
2018-12-21T14:37:41.837Z,11.02
2018-12-21T14:40:10.371Z,11.04
2018-12-21T14:42:38.623Z,10.99
2018-12-21T14:45:07.233Z,11.07
2018-12-21T14:47:35.538Z,11.12
2018-12-21T14:50:05.598Z,11.10
2018-12-21T14:52:34.425Z,11.04
2018-12-21T14:55:03.141Z,11.18
2018-12-21T14:57:31.457Z,11.22
2018-12-21T15:00:00.297Z,11.19
2018-12-21T15:02:29.039Z,11.21
2018-12-21T15:04:57.676Z,11.24
2018-12-21T15:07:26.283Z,11.30
2018-12-21T15:09:54.848Z,11.29
2018-12-21T15:12:23.134Z,11.20
2018-12-21T15:14:51.916Z,11.24
2018-12-21T15:17:20.218Z,11.18
2018-12-21T15:19:50.681Z,11.18
2018-12-21T15:22:19.043Z,11.14
2018-12-21T15:24:47.315Z,11.20
2018-12-21T15:27:16.793Z,11.20
2018-12-21T15:29:50.864Z,11.22
2018-12-21T15:32:19.546Z,11.23
2018-12-21T15:34:47.909Z,11.25
2018-12-21T15:37:17.368Z,11.28
2018-12-21T15:39:45.853Z,11.30
2018-12-21T15:42:14.527Z,11.28
2018-12-21T15:44:43.460Z,11.32
2018-12-21T15:47:11.916Z,11.26
2018-12-21T15:49:41.108Z,11.28
2018-12-21T15:52:10.482Z,11.32
2018-12-21T15:54:40.405Z,11.34
2018-12-21T15:57:09.552Z,11.34
2018-12-21T15:59:38.006Z,11.38
2018-12-21T16:02:06.377Z,11.32
2018-12-21T16:04:35.684Z,11.34
2018-12-21T16:07:04.094Z,11.38
2018-12-21T16:09:32.257Z,11.41
2018-12-21T16:12:02.196Z,11.40
2018-12-21T16:14:34.450Z,11.49
2018-12-21T16:17:02.748Z,11.50
2018-12-21T16:19:31.524Z,11.46
2018-12-21T16:22:00.158Z,11.49
2018-12-21T16:24:29.487Z,11.49
2018-12-21T16:26:58.025Z,11.47
2018-12-21T16:29:26.377Z,11.45
2018-12-21T16:31:54.690Z,11.54
2018-12-21T16:34:22.977Z,11.54
2018-12-21T16:36:51.629Z,11.52
2018-12-21T16:39:19.937Z,11.56
2018-12-21T16:41:48.435Z,11.62
2018-12-21T16:44:16.744Z,11.60
2018-12-21T16:46:45.027Z,11.62
2018-12-21T16:49:13.308Z,11.67
2018-12-21T16:51:41.965Z,11.66
2018-12-21T16:54:10.324Z,11.65
2018-12-21T16:56:39.060Z,11.72
2018-12-21T16:59:07.382Z,11.67
2018-12-21T17:01:36.169Z,11.72
2018-12-21T17:04:05.019Z,11.80
2018-12-21T17:06:37.101Z,11.82
2018-12-21T17:09:07.831Z,11.82
2018-12-21T17:11:36.867Z,11.84
2018-12-21T17:14:05.157Z,11.85
2018-12-21T17:16:33.486Z,11.92
2018-12-21T17:19:06.167Z,11.96
2018-12-21T17:21:34.495Z,11.81
2018-12-21T17:24:05.504Z,11.78
2018-12-21T17:26:33.861Z,11.83
2018-12-21T17:29:03.266Z,11.86
2018-12-21T17:31:32.792Z,11.91
2018-12-21T17:34:01.503Z,11.94
2018-12-21T17:36:30.298Z,11.93
2018-12-21T17:38:58.779Z,11.92
2018-12-21T17:41:27.797Z,11.99
2018-12-21T17:43:56.406Z,12.04
2018-12-21T17:46:24.965Z,12.00
2018-12-21T17:48:53.248Z,11.95
2018-12-21T17:51:22.133Z,11.99
2018-12-21T17:53:51.458Z,11.98
2018-12-21T17:56:19.660Z,12.08
2018-12-21T17:58:48.138Z,12.09
2018-12-21T18:01:16.975Z,12.16
2018-12-21T18:04:38.968Z,12.19
2018-12-21T18:07:07.442Z,12.07
2018-12-21T18:09:37.513Z,12.11
2018-12-21T18:14:46.051Z,12.13
2018-12-21T18:17:15.040Z,12.20
2018-12-21T18:19:44.887Z,12.20
2018-12-21T18:22:19.644Z,12.18
2018-12-21T18:24:54.969Z,12.18
2018-12-21T18:27:24.277Z,12.13
2018-12-21T18:29:53.957Z,12.13
2018-12-21T18:32:35.877Z,12.17
2018-12-21T18:35:09.178Z,12.09
2018-12-21T18:37:47.640Z,12.10
2018-12-21T18:40:22.863Z,12.03
2018-12-21T18:42:56.741Z,11.99
2018-12-21T18:45:29.500Z,11.90
2018-12-21T18:48:00.684Z,11.80
2018-12-21T18:50:33.076Z,11.75
2018-12-21T18:53:03.316Z,11.75
2018-12-21T18:55:39.335Z,11.77
2018-12-21T18:58:08.216Z,11.70
2018-12-21T19:00:38.078Z,11.73
2018-12-21T19:03:06.589Z,11.73
2018-12-21T19:05:35.354Z,11.75
2018-12-21T19:08:03.967Z,11.72
2018-12-21T19:10:33.342Z,11.70
2018-12-21T19:13:02.441Z,11.66
2018-12-21T19:15:32.614Z,11.73
2018-12-21T19:18:01.428Z,11.69
2018-12-21T19:20:32.569Z,11.68
2018-12-21T19:23:05.583Z,11.67
2018-12-21T19:25:35.703Z,11.66
2018-12-21T19:28:04.268Z,11.55
2018-12-21T19:30:34.177Z,11.58
2018-12-21T19:33:03.473Z,11.60
2018-12-21T19:35:32.660Z,11.65
2018-12-21T19:38:01.921Z,11.64
2018-12-21T19:40:30.927Z,11.64
2018-12-21T19:42:59.831Z,11.66
2018-12-21T19:45:28.166Z,11.66
2018-12-21T19:47:56.676Z,11.69
2018-12-21T19:50:25.544Z,11.71
2018-12-21T19:52:54.374Z,11.67
2018-12-21T19:55:39.348Z,11.64
2018-12-21T19:58:07.883Z,11.61
2018-12-21T20:00:36.188Z,11.69
2018-12-21T20:03:05.514Z,11.64
2018-12-21T20:05:34.087Z,11.72
2018-12-21T20:08:03.127Z,11.80
2018-12-21T20:10:31.428Z,11.85
2018-12-21T20:12:59.984Z,11.90
2018-12-21T20:15:28.280Z,11.83
2018-12-21T20:17:56.963Z,11.83
2018-12-21T20:20:25.482Z,11.85
2018-12-21T20:22:53.730Z,11.90
2018-12-21T20:25:22.070Z,11.90
2018-12-21T20:27:50.359Z,11.87
2018-12-21T20:30:20.575Z,11.93
2018-12-21T20:32:48.833Z,11.93
2018-12-21T20:35:17.387Z,12.01
2018-12-21T20:37:45.990Z,11.97
2018-12-21T20:40:14.370Z,11.99
2018-12-21T20:42:42.597Z,11.99
2018-12-21T20:45:11.866Z,12.06
2018-12-21T20:47:40.542Z,12.05
2018-12-21T20:50:13.749Z,12.08
2018-12-21T20:52:42.698Z,12.01
2018-12-21T20:55:10.974Z,12.02
2018-12-21T20:57:40.798Z,12.04
2018-12-21T21:02:52.360Z,12.02
2018-12-21T21:05:20.621Z,12.06
2018-12-21T21:07:49.458Z,12.06
2018-12-21T21:10:18.051Z,12.06
2018-12-21T21:12:46.763Z,12.03
2018-12-21T21:15:15.254Z,11.95
2018-12-21T21:17:43.802Z,11.97
2018-12-21T21:20:14.645Z,11.97
2018-12-21T21:22:43.222Z,11.94
2018-12-21T21:25:11.808Z,11.89
2018-12-21T21:27:41.316Z,11.89
2018-12-21T21:30:14.590Z,11.84
2018-12-21T21:32:43.771Z,11.86
2018-12-21T21:35:12.449Z,11.90
2018-12-21T21:37:40.732Z,11.86
2018-12-21T21:40:15.066Z,11.95
2018-12-21T21:42:44.218Z,11.88
2018-12-21T21:45:12.556Z,11.91
2018-12-21T21:47:40.858Z,11.93
2018-12-21T21:50:09.399Z,11.90
2018-12-21T21:52:37.755Z,11.88
2018-12-21T21:55:06.561Z,11.85
2018-12-21T21:57:39.241Z,11.79
2018-12-21T22:00:09.470Z,11.77
2018-12-21T22:02:37.980Z,11.72
2018-12-21T22:05:06.257Z,11.71
2018-12-21T22:07:34.554Z,11.68
2018-12-21T22:10:03.193Z,11.69
2018-12-21T22:12:32.301Z,11.65
2018-12-21T22:15:01.028Z,11.67
2018-12-21T22:17:29.522Z,11.66
2018-12-21T22:19:58.150Z,11.67
2018-12-21T22:22:26.773Z,11.73
2018-12-21T22:24:55.021Z,11.73
2018-12-21T22:27:23.677Z,11.75
2018-12-21T22:29:52.420Z,11.82
2018-12-21T22:32:21.312Z,11.82
2018-12-21T22:34:50.742Z,11.83
2018-12-21T22:37:18.949Z,11.79
2018-12-21T22:39:47.170Z,11.72
2018-12-21T22:42:15.440Z,11.72
2018-12-21T22:44:43.995Z,11.62
2018-12-21T22:47:12.761Z,11.61
2018-12-21T22:49:42.557Z,11.63
2018-12-21T22:52:11.456Z,11.62
2018-12-21T22:54:39.769Z,11.64
2018-12-21T22:57:08.563Z,11.60
2018-12-21T22:59:37.510Z,11.60
2018-12-21T23:02:07.000Z,11.58
2018-12-21T23:04:35.365Z,11.56
2018-12-21T23:07:04.144Z,11.61
2018-12-21T23:09:33.296Z,11.51
2018-12-21T23:12:02.120Z,11.49
2018-12-21T23:14:30.965Z,11.47
2018-12-21T23:16:59.931Z,11.48
2018-12-21T23:19:28.527Z,11.55
2018-12-21T23:21:56.854Z,11.53
2018-12-21T23:24:25.174Z,11.61
2018-12-21T23:26:53.662Z,11.58
2018-12-21T23:29:24.893Z,11.53
2018-12-21T23:31:53.465Z,11.51
2018-12-21T23:34:22.009Z,11.50
2018-12-21T23:36:50.356Z,11.51
2018-12-21T23:39:18.714Z,11.51
2018-12-21T23:41:47.714Z,11.60
2018-12-21T23:44:16.391Z,11.61
2018-12-21T23:46:45.147Z,11.63
2018-12-21T23:49:13.945Z,11.59
2018-12-21T23:51:42.584Z,11.55
2018-12-21T23:54:11.047Z,11.55
2018-12-21T23:56:39.865Z,11.60
2018-12-21T23:59:08.372Z,11.46
